Time;durP1;ratioP1;P1;durP2;ratioP2;P2;SDS_P1;SDS_P2;PMS_P1;PMS_P2;Temp;Humidity;BMP_temperature;BMP_pressure;BME280_temperature;BME280_humidity;BME280_pressure;Samples;Min_cycle;Max_cycle;Signal;HPM_P1;HPM_P2
2023/08/22 00:00:34;;;;;;;6.50;3.80;;;19.70;99.90;;;;;;5075844;28;20459;-83
2023/08/22 00:03:03;;;;;;;7.90;4.30;;;19.70;99.90;;;;;;5075300;28;20502;-82
2023/08/22 00:05:30;;;;;;;6.50;3.70;;;19.70;99.90;;;;;;5075075;28;20550;-81
2023/08/22 00:07:57;;;;;;;7.90;3.50;;;19.60;99.90;;;;;;5074560;28;20490;-81
2023/08/22 00:10:23;;;;;;;5.13;3.93;;;19.60;99.90;;;;;;5075423;28;20465;-81
2023/08/22 00:12:50;;;;;;;4.90;3.70;;;19.60;99.90;;;;;;5075535;28;20534;-82
2023/08/22 00:15:17;;;;;;;3.80;3.33;;;19.60;99.90;;;;;;5080763;28;20479;-80
2023/08/22 00:17:45;;;;;;;4.93;3.90;;;19.60;99.90;;;;;;5075297;28;20872;-81
2023/08/22 00:20:13;;;;;;;5.03;3.60;;;19.50;99.90;;;;;;5075178;28;21019;-81
2023/08/22 00:22:40;;;;;;;4.80;4.40;;;19.50;99.90;;;;;;5075539;28;20458;-81
2023/08/22 00:25:09;;;;;;;5.57;4.80;;;19.50;99.90;;;;;;5075279;28;20451;-80
2023/08/22 00:27:36;;;;;;;6.90;4.43;;;19.50;99.90;;;;;;5077433;28;20482;-81
2023/08/22 00:30:03;;;;;;;5.20;4.33;;;19.50;99.90;;;;;;5075805;28;20455;-81
2023/08/22 00:32:31;;;;;;;7.20;4.17;;;19.50;99.90;;;;;;5075895;28;20458;-80
2023/08/22 00:34:58;;;;;;;5.10;4.33;;;19.40;99.90;;;;;;5074630;28;20581;-81
2023/08/22 00:37:26;;;;;;;4.93;3.50;;;19.40;99.90;;;;;;5076278;28;20467;-81
2023/08/22 00:39:53;;;;;;;4.77;3.83;;;19.40;99.90;;;;;;5079668;28;20455;-81
2023/08/22 00:42:20;;;;;;;5.37;3.50;;;19.40;99.90;;;;;;5078306;28;20436;-81
2023/08/22 00:44:46;;;;;;;5.80;4.23;;;19.40;99.90;;;;;;5062360;28;20563;-80
2023/08/22 00:47:14;;;;;;;4.40;3.60;;;19.40;99.90;;;;;;5071867;28;20953;-81
2023/08/22 00:49:41;;;;;;;5.30;3.90;;;19.40;99.90;;;;;;5082044;28;20883;-80
2023/08/22 00:52:08;;;;;;;5.77;4.20;;;19.40;99.90;;;;;;5081787;28;20466;-82
2023/08/22 00:54:36;;;;;;;4.30;3.50;;;19.40;99.90;;;;;;5082189;28;20446;-80
2023/08/22 00:57:03;;;;;;;4.43;3.33;;;19.30;99.90;;;;;;5080271;28;21048;-82
2023/08/22 00:59:30;;;;;;;5.33;3.70;;;19.30;99.90;;;;;;5081351;28;20459;-81
2023/08/22 01:01:57;;;;;;;4.73;3.93;;;19.30;99.90;;;;;;5080796;28;20500;-81
2023/08/22 01:04:24;;;;;;;5.80;4.40;;;19.20;99.90;;;;;;5079941;28;20463;-81
2023/08/22 01:06:57;;;;;;;7.37;4.17;;;19.20;99.90;;;;;;5079151;28;20970;-81
2023/08/22 01:09:30;;;;;;;8.60;4.70;;;19.20;99.90;;;;;;5079212;28;20479;-82
2023/08/22 01:12:04;;;;;;;6.93;4.33;;;19.20;99.90;;;;;;5080080;28;20455;-81
2023/08/22 01:14:36;;;;;;;6.00;4.47;;;19.30;99.90;;;;;;5080394;28;20466;-81
2023/08/22 01:17:04;;;;;;;6.90;4.20;;;19.20;99.90;;;;;;5079068;28;20495;-81
2023/08/22 01:19:31;;;;;;;4.97;3.70;;;19.20;99.90;;;;;;5080277;28;20451;-82
2023/08/22 01:21:59;;;;;;;4.30;3.30;;;19.20;99.90;;;;;;5080444;28;20470;-81
2023/08/22 01:24:26;;;;;;;4.80;3.63;;;19.20;99.90;;;;;;5079697;28;20827;-82
2023/08/22 01:26:53;;;;;;;4.57;3.80;;;19.20;99.90;;;;;;5079357;28;20549;-81
2023/08/22 01:29:25;;;;;;;5.20;3.80;;;19.20;99.90;;;;;;5080356;28;20477;-82
2023/08/22 01:31:57;;;;;;;4.93;3.73;;;19.20;99.90;;;;;;5078874;28;20455;-82
2023/08/22 01:34:29;;;;;;;5.50;4.70;;;19.20;99.90;;;;;;5077113;28;20537;-81
2023/08/22 01:36:59;;;;;;;5.77;3.60;;;19.20;99.90;;;;;;5076726;28;20475;-82
2023/08/22 01:39:29;;;;;;;6.00;4.37;;;19.20;99.90;;;;;;5076595;28;21224;-81
2023/08/22 01:41:57;;;;;;;5.10;4.10;;;19.20;99.90;;;;;;5076869;28;20457;-81
2023/08/22 01:44:25;;;;;;;6.00;4.10;;;19.20;99.90;;;;;;5077689;28;20455;-82
2023/08/22 01:46:52;;;;;;;7.07;3.87;;;19.20;99.90;;;;;;5076421;28;20447;-80
2023/08/22 01:49:19;;;;;;;5.90;4.67;;;19.20;99.90;;;;;;5077459;28;20546;-82
2023/08/22 01:51:45;;;;;;;6.00;4.23;;;19.20;99.90;;;;;;5077265;28;20985;-81
2023/08/22 01:54:12;;;;;;;6.67;4.10;;;19.30;99.90;;;;;;5076234;28;20489;-81
2023/08/22 01:56:41;;;;;;;5.30;4.50;;;19.30;99.90;;;;;;5076651;28;20483;-81
2023/08/22 01:59:07;;;;;;;5.37;4.60;;;19.20;99.90;;;;;;5077272;28;20475;-81
2023/08/22 02:01:34;;;;;;;8.50;4.17;;;19.30;99.90;;;;;;5077047;28;20811;-82
2023/08/22 02:04:03;;;;;;;5.53;4.70;;;19.30;99.90;;;;;;5076974;28;20443;-82
2023/08/22 02:06:30;;;;;;;7.83;5.60;;;19.30;99.90;;;;;;5075967;28;20505;-80
2023/08/22 02:08:57;;;;;;;6.43;4.67;;;19.30;99.90;;;;;;5076998;28;21103;-81
2023/08/22 02:11:24;;;;;;;5.33;4.37;;;19.30;99.90;;;;;;5078970;28;20451;-81
2023/08/22 02:13:52;;;;;;;5.87;4.00;;;19.30;99.90;;;;;;5077322;28;20951;-81
2023/08/22 02:16:19;;;;;;;5.70;3.70;;;19.30;99.90;;;;;;5078212;28;20485;-83
2023/08/22 02:18:46;;;;;;;6.93;4.40;;;19.30;99.90;;;;;;5078090;28;20565;-81
2023/08/22 02:21:13;;;;;;;6.60;4.93;;;19.30;99.90;;;;;;5079783;28;20443;-81
2023/08/22 02:23:39;;;;;;;6.00;3.73;;;19.30;99.90;;;;;;5076210;28;20465;-81
2023/08/22 02:26:06;;;;;;;4.50;4.10;;;19.30;99.90;;;;;;5076651;28;20470;-81
2023/08/22 02:28:33;;;;;;;8.80;4.67;;;19.30;99.90;;;;;;5075900;28;20991;-81
2023/08/22 02:31:02;;;;;;;5.37;4.43;;;19.30;99.90;;;;;;5076114;28;20459;-79
2023/08/22 02:33:29;;;;;;;6.80;4.63;;;19.30;99.90;;;;;;5075056;28;20494;-80
2023/08/22 02:35:55;;;;;;;7.03;4.90;;;19.30;99.90;;;;;;5075370;28;20510;-81
2023/08/22 02:38:22;;;;;;;5.07;4.57;;;19.30;99.90;;;;;;5075014;28;20494;-83
2023/08/22 02:40:49;;;;;;;5.70;4.50;;;19.30;99.90;;;;;;5075493;28;20455;-81
2023/08/22 02:43:16;;;;;;;4.90;4.07;;;19.30;99.90;;;;;;5075035;28;20455;-81
2023/08/22 02:45:45;;;;;;;4.70;4.30;;;19.30;99.90;;;;;;5074774;28;20521;-81
2023/08/22 02:48:13;;;;;;;7.43;5.23;;;19.20;99.90;;;;;;5074378;28;20475;-81
2023/08/22 02:50:40;;;;;;;9.27;3.97;;;19.20;99.90;;;;;;5075619;28;20445;-81
2023/08/22 02:53:09;;;;;;;6.40;4.30;;;19.30;99.90;;;;;;5075440;28;20642;-80
2023/08/22 02:55:37;;;;;;;7.03;4.83;;;19.30;99.90;;;;;;5074292;28;20483;-81
2023/08/22 02:58:05;;;;;;;8.47;4.70;;;19.20;99.90;;;;;;5075691;28;20891;-82
2023/08/22 03:00:33;;;;;;;8.40;4.60;;;19.20;99.90;;;;;;5074663;28;20455;-81
2023/08/22 03:03:00;;;;;;;8.43;4.13;;;19.20;99.90;;;;;;5074992;28;20452;-81
2023/08/22 03:05:28;;;;;;;5.20;3.97;;;19.20;99.90;;;;;;5074516;28;20458;-81
2023/08/22 03:07:55;;;;;;;8.00;4.43;;;19.10;99.90;;;;;;5074441;28;20483;-80
2023/08/22 03:10:21;;;;;;;8.20;5.00;;;19.10;99.90;;;;;;5075005;28;20473;-80
2023/08/22 03:12:50;;;;;;;6.20;4.10;;;19.10;99.90;;;;;;5074029;28;20435;-81
2023/08/22 03:15:17;;;;;;;7.07;5.07;;;19.10;99.90;;;;;;5074663;28;20463;-80
2023/08/22 03:17:43;;;;;;;4.87;4.37;;;19.10;99.90;;;;;;5077001;28;20483;-80
2023/08/22 03:20:11;;;;;;;8.20;5.73;;;19.00;99.90;;;;;;5078859;28;20447;-82
2023/08/22 03:22:39;;;;;;;6.73;4.33;;;19.00;99.90;;;;;;5077493;28;20455;-81
2023/08/22 03:25:06;;;;;;;5.80;4.80;;;19.00;99.90;;;;;;5077203;28;20451;-81
2023/08/22 03:27:33;;;;;;;8.00;4.33;;;19.00;99.90;;;;;;5077209;28;20467;-82
2023/08/22 03:30:00;;;;;;;8.57;4.93;;;19.00;99.90;;;;;;5077757;28;20458;-81
2023/08/22 03:32:27;;;;;;;5.00;4.47;;;19.00;99.90;;;;;;5079158;28;20450;-82
2023/08/22 03:34:54;;;;;;;6.20;3.90;;;19.00;99.90;;;;;;5078273;28;20533;-80
2023/08/22 03:37:20;;;;;;;5.60;4.30;;;19.00;99.90;;;;;;5077201;28;21212;-81
2023/08/22 03:39:48;;;;;;;7.10;4.10;;;19.00;99.90;;;;;;5077973;28;20468;-82
2023/08/22 03:42:15;;;;;;;6.53;5.00;;;18.90;99.90;;;;;;5079129;28;20455;-83
2023/08/22 03:44:42;;;;;;;6.07;4.13;;;18.90;99.90;;;;;;5079471;28;20451;-81
2023/08/22 03:47:09;;;;;;;5.83;4.23;;;18.90;99.90;;;;;;5079396;28;20443;-81
2023/08/22 03:49:36;;;;;;;5.83;4.80;;;18.90;99.90;;;;;;5080102;28;20450;-81
2023/08/22 03:52:03;;;;;;;6.63;4.17;;;18.90;99.90;;;;;;5079036;28;20837;-81
2023/08/22 03:54:30;;;;;;;6.00;4.97;;;18.90;99.90;;;;;;5080249;28;21002;-82
2023/08/22 03:56:58;;;;;;;5.33;4.20;;;18.90;99.90;;;;;;5080504;28;20559;-81
2023/08/22 03:59:24;;;;;;;9.53;4.60;;;18.90;99.90;;;;;;5081418;28;20518;-83
2023/08/22 04:01:51;;;;;;;5.40;4.70;;;18.90;99.90;;;;;;5083334;28;21001;-81
2023/08/22 04:04:18;;;;;;;4.97;4.40;;;18.80;99.90;;;;;;5082949;28;20455;-82
2023/08/22 04:06:45;;;;;;;5.27;4.43;;;18.80;99.90;;;;;;5077207;28;20527;-82
2023/08/22 04:09:12;;;;;;;5.03;4.13;;;18.80;99.90;;;;;;5034099;22;20597;-82
2023/08/22 04:11:39;;;;;;;5.17;4.67;;;18.80;99.90;;;;;;5008986;28;20453;-83
2023/08/22 04:14:10;;;;;;;5.87;4.67;;;18.80;99.90;;;;;;5014540;28;20457;-82
2023/08/22 04:16:38;;;;;;;6.97;4.57;;;18.70;99.90;;;;;;5012751;28;20500;-82
2023/08/22 04:19:05;;;;;;;6.80;4.47;;;18.70;99.90;;;;;;5015536;28;20474;-82
2023/08/22 04:21:32;;;;;;;5.87;4.53;;;18.70;99.90;;;;;;5016951;28;20449;-82
2023/08/22 04:23:58;;;;;;;5.97;4.60;;;18.70;99.90;;;;;;5016016;28;20831;-81
2023/08/22 04:26:25;;;;;;;6.60;4.60;;;18.70;99.90;;;;;;5015921;28;20445;-82
2023/08/22 04:28:52;;;;;;;5.47;4.40;;;18.70;99.90;;;;;;5017425;28;20485;-83
2023/08/22 04:31:20;;;;;;;5.17;4.47;;;18.70;99.90;;;;;;5018221;28;20471;-81
2023/08/22 04:33:47;;;;;;;5.80;5.07;;;18.70;99.90;;;;;;5018710;28;20449;-82
2023/08/22 04:36:13;;;;;;;5.53;4.90;;;18.70;99.90;;;;;;5016308;28;20516;-82
2023/08/22 04:38:40;;;;;;;5.20;4.20;;;18.70;99.90;;;;;;5016292;28;20469;-82
2023/08/22 04:41:07;;;;;;;6.60;4.97;;;18.70;99.90;;;;;;5015535;28;20540;-81
2023/08/22 04:43:34;;;;;;;6.80;4.97;;;18.70;99.90;;;;;;5016369;28;20454;-80
2023/08/22 04:46:01;;;;;;;5.80;4.80;;;18.70;99.90;;;;;;5015769;28;20484;-81
2023/08/22 04:48:29;;;;;;;6.50;5.80;;;18.70;99.90;;;;;;5015570;28;21013;-81
2023/08/22 04:50:56;;;;;;;5.37;4.73;;;18.70;99.90;;;;;;5015260;28;20450;-81
2023/08/22 04:53:24;;;;;;;6.20;4.97;;;18.70;99.90;;;;;;5014417;28;20458;-81
2023/08/22 04:55:51;;;;;;;6.73;5.60;;;18.70;99.90;;;;;;5015507;28;20544;-81
2023/08/22 04:58:18;;;;;;;5.67;4.30;;;18.70;99.90;;;;;;5015317;28;20495;-81
2023/08/22 05:00:44;;;;;;;6.73;6.00;;;18.70;99.90;;;;;;5015473;28;20461;-81
2023/08/22 05:03:11;;;;;;;7.53;5.60;;;18.70;99.90;;;;;;5007353;28;20468;-83
2023/08/22 05:05:39;;;;;;;6.33;5.13;;;18.80;99.90;;;;;;5014490;28;20442;-81
2023/08/22 05:08:06;;;;;;;6.97;5.40;;;18.80;99.90;;;;;;5010935;28;20998;-80
2023/08/22 05:10:33;;;;;;;5.93;4.80;;;18.80;99.90;;;;;;4988166;28;20470;-82
2023/08/22 05:13:00;;;;;;;6.00;5.00;;;18.80;99.90;;;;;;5014488;28;20461;-82
2023/08/22 05:15:27;;;;;;;7.10;5.57;;;18.80;99.90;;;;;;5013275;28;20449;-82
2023/08/22 05:17:56;;;;;;;5.87;4.93;;;18.80;99.90;;;;;;5006540;28;20511;-83
2023/08/22 05:20:23;;;;;;;9.70;5.87;;;18.80;99.90;;;;;;5024127;28;20522;-81
2023/08/22 05:22:51;;;;;;;7.00;4.77;;;18.90;99.90;;;;;;5029349;28;20455;-81
2023/08/22 05:25:19;;;;;;;7.10;5.53;;;18.90;99.90;;;;;;5005088;28;20489;-80
2023/08/22 05:27:45;;;;;;;7.47;5.77;;;18.90;99.90;;;;;;5015962;28;20525;-82
2023/08/22 05:30:12;;;;;;;6.00;5.40;;;18.90;99.90;;;;;;5014326;28;20846;-82
2023/08/22 05:32:40;;;;;;;8.00;5.40;;;18.90;99.90;;;;;;5019125;28;20456;-82
2023/08/22 05:35:08;;;;;;;5.93;5.33;;;18.90;99.90;;;;;;5015975;28;20456;-81
2023/08/22 05:37:35;;;;;;;7.50;5.40;;;18.90;99.90;;;;;;5015022;28;20521;-81
2023/08/22 05:40:11;;;;;;;6.83;5.93;;;18.90;99.90;;;;;;5022181;28;20442;-81
2023/08/22 05:42:38;;;;;;;8.20;6.50;;;18.90;99.90;;;;;;5018105;28;20535;-82
2023/08/22 05:45:42;;;;;;;6.00;5.50;;;19.00;99.90;;;;;;5015219;28;20453;-81
2023/08/22 05:48:09;;;;;;;8.03;5.20;;;19.00;99.90;;;;;;5016127;28;20524;-83
2023/08/22 05:51:01;;;;;;;7.73;5.30;;;19.00;99.90;;;;;;5019070;28;20458;-82
2023/08/22 05:53:28;;;;;;;9.80;6.50;;;19.10;99.90;;;;;;5016764;28;20498;-83
2023/08/22 05:55:56;;;;;;;9.43;6.07;;;19.10;99.90;;;;;;5017039;28;20472;-83
2023/08/22 05:58:23;;;;;;;7.70;6.20;;;19.20;99.90;;;;;;5015941;28;20588;-82
2023/08/22 06:00:50;;;;;;;7.63;6.73;;;19.20;99.90;;;;;;5015101;28;20460;-83
2023/08/22 06:03:18;;;;;;;8.70;6.93;;;19.30;99.90;;;;;;5015565;28;20564;-81
2023/08/22 06:05:45;;;;;;;7.00;6.10;;;19.30;99.90;;;;;;5013246;28;20458;-82
2023/08/22 06:08:12;;;;;;;9.47;6.10;;;19.40;99.90;;;;;;5014627;28;20477;-84
2023/08/22 06:10:38;;;;;;;11.13;7.10;;;19.40;99.90;;;;;;5016443;28;20488;-83
2023/08/22 06:13:06;;;;;;;10.83;6.27;;;19.50;99.90;;;;;;5016595;28;20477;-82
2023/08/22 06:15:36;;;;;;;8.30;6.37;;;19.50;99.90;;;;;;5012085;28;20855;-80
2023/08/22 06:18:03;;;;;;;8.10;6.10;;;19.60;99.90;;;;;;5007443;28;20998;-80
2023/08/22 06:20:30;;;;;;;10.00;6.60;;;19.60;99.90;;;;;;5005089;28;20587;-80
2023/08/22 06:22:56;;;;;;;12.37;7.00;;;19.70;99.90;;;;;;5008675;28;20512;-83
2023/08/22 06:25:23;;;;;;;9.53;7.77;;;19.80;99.90;;;;;;5015119;28;21163;-81
2023/08/22 06:27:50;;;;;;;10.40;7.23;;;19.80;99.90;;;;;;5008382;28;20490;-84
2023/08/22 06:30:18;;;;;;;9.83;7.60;;;19.80;99.90;;;;;;5014982;28;20462;-80
2023/08/22 06:32:46;;;;;;;8.23;7.43;;;19.90;99.90;;;;;;5014535;28;20538;-82
2023/08/22 06:35:12;;;;;;;12.90;7.17;;;20.00;99.90;;;;;;5015195;28;21025;-82
2023/08/22 06:37:39;;;;;;;11.80;8.53;;;20.00;99.90;;;;;;5013610;28;20907;-82
2023/08/22 06:40:08;;;;;;;9.60;8.60;;;20.10;99.90;;;;;;5013650;28;20458;-83
2023/08/22 06:42:34;;;;;;;9.37;8.20;;;20.10;99.90;;;;;;5004663;28;20517;-83
2023/08/22 06:45:01;;;;;;;11.43;10.10;;;20.20;99.90;;;;;;5007297;28;20464;-81
2023/08/22 06:47:29;;;;;;;14.63;10.10;;;20.20;99.90;;;;;;5013342;28;20446;-79
2023/08/22 06:49:56;;;;;;;12.47;10.17;;;20.30;99.90;;;;;;5013010;28;20962;-82
2023/08/22 06:52:23;;;;;;;17.80;10.27;;;20.40;99.90;;;;;;5014038;28;20460;-82
2023/08/22 06:54:50;;;;;;;13.23;8.93;;;20.40;99.90;;;;;;5013601;28;20472;-82
2023/08/22 06:57:16;;;;;;;10.20;9.07;;;20.50;99.90;;;;;;5013525;28;20504;-81
2023/08/22 06:59:43;;;;;;;14.43;9.10;;;20.60;99.90;;;;;;5014033;28;20481;-83
2023/08/22 07:02:10;;;;;;;12.27;9.17;;;20.60;99.90;;;;;;5014649;28;20456;-84
2023/08/22 07:04:38;;;;;;;8.83;7.90;;;20.70;99.90;;;;;;5014512;28;20458;-82
2023/08/22 07:07:05;;;;;;;9.63;7.80;;;20.80;99.90;;;;;;5014356;28;20452;-81
2023/08/22 07:09:32;;;;;;;13.90;9.70;;;20.90;99.90;;;;;;5013096;28;20509;-84
2023/08/22 07:11:59;;;;;;;13.37;8.60;;;21.00;99.90;;;;;;5013751;28;20540;-84
2023/08/22 07:14:27;;;;;;;10.83;7.70;;;21.20;99.90;;;;;;5014503;28;20458;-82
2023/08/22 07:16:54;;;;;;;11.73;8.23;;;21.30;99.90;;;;;;5014384;28;20980;-81
2023/08/22 07:19:20;;;;;;;13.27;8.07;;;21.30;99.90;;;;;;5015015;28;20479;-83
2023/08/22 07:21:49;;;;;;;10.03;7.90;;;21.50;99.90;;;;;;5014906;28;20950;-82
2023/08/22 07:24:15;;;;;;;10.40;7.93;;;21.50;99.90;;;;;;5015578;28;20839;-83
2023/08/22 07:26:42;;;;;;;14.23;7.67;;;21.60;99.90;;;;;;5012445;28;20457;-81
2023/08/22 07:29:09;;;;;;;12.93;7.40;;;21.70;99.90;;;;;;5014880;28;21092;-83
2023/08/22 07:31:36;;;;;;;10.60;7.40;;;21.80;99.90;;;;;;5015872;28;20464;-82
2023/08/22 07:34:03;;;;;;;9.93;7.13;;;21.80;99.90;;;;;;5015302;28;20458;-82
2023/08/22 07:36:30;;;;;;;8.93;6.50;;;21.90;99.90;;;;;;5014076;28;20819;-80
2023/08/22 07:38:58;;;;;;;10.97;7.00;;;21.90;99.90;;;;;;5014314;28;20494;-81
2023/08/22 07:41:25;;;;;;;12.60;8.10;;;22.00;99.90;;;;;;5014608;28;20457;-83
2023/08/22 07:43:52;;;;;;;11.93;7.10;;;22.10;99.90;;;;;;5010303;28;20456;-83
2023/08/22 07:46:19;;;;;;;8.77;6.80;;;22.10;99.90;;;;;;5004695;28;20459;-82
2023/08/22 07:48:46;;;;;;;13.10;7.80;;;22.10;99.90;;;;;;5015264;28;20477;-83
2023/08/22 07:51:13;;;;;;;10.97;6.43;;;22.10;97.50;;;;;;5017448;28;20521;-84
2023/08/22 07:53:39;;;;;;;8.73;6.03;;;22.20;62.00;;;;;;5017597;28;20548;-83
2023/08/22 07:56:08;;;;;;;7.43;6.13;;;22.20;97.70;;;;;;5010988;28;20450;-82
2023/08/22 07:58:35;;;;;;;8.57;6.90;;;22.20;88.10;;;;;;5011647;28;20504;-81
2023/08/22 08:01:05;;;;;;;7.67;5.60;;;22.30;27.70;;;;;;5017839;28;20460;-82
2023/08/22 08:03:32;;;;;;;8.77;6.73;;;22.40;58.20;;;;;;4999681;28;21050;-83
2023/08/22 08:05:59;;;;;;;10.70;6.87;;;22.50;4.80;;;;;;5002880;28;20560;-82
2023/08/22 08:08:26;;;;;;;9.53;5.70;;;22.60;1.00;;;;;;5015815;28;20477;-82
2023/08/22 08:10:53;;;;;;;9.03;6.30;;;22.80;1.00;;;;;;5014820;28;20477;-83
2023/08/22 08:13:21;;;;;;;10.03;6.17;;;22.90;8.10;;;;;;5011539;28;20493;-84
2023/08/22 08:15:48;;;;;;;7.37;4.60;;;22.90;1.00;;;;;;5020476;28;20444;-84
2023/08/22 08:18:15;;;;;;;10.30;4.77;;;23.00;2.60;;;;;;5032675;28;20843;-83
2023/08/22 08:20:43;;;;;;;9.20;5.17;;;23.10;61.80;;;;;;5004104;28;20478;-80
2023/08/22 08:23:11;;;;;;;7.90;5.43;;;23.20;42.60;;;;;;5016178;28;20457;-81
2023/08/22 08:25:38;;;;;;;10.23;5.50;;;23.20;13.20;;;;;;5009389;28;20455;-82
2023/08/22 08:28:05;;;;;;;11.87;5.50;;;23.30;1.00;;;;;;5015756;28;20462;-80
2023/08/22 08:30:34;;;;;;;9.90;5.27;;;23.30;1.00;;;;;;5016274;28;20552;-82
2023/08/22 08:33:04;;;;;;;7.53;5.57;;;23.40;1.00;;;;;;4998343;28;20455;-82
2023/08/22 08:35:31;;;;;;;9.50;4.40;;;23.50;1.00;;;;;;5009293;28;20467;-82
2023/08/22 08:37:59;;;;;;;7.03;3.40;;;23.50;1.00;;;;;;5017921;28;20489;-84
2023/08/22 08:40:34;;;;;;;5.80;3.37;;;23.60;1.00;;;;;;5017670;28;20457;-84
2023/08/22 08:43:01;;;;;;;6.60;3.23;;;23.70;1.00;;;;;;5018752;28;20445;-82
2023/08/22 08:45:30;;;;;;;5.93;3.83;;;23.70;1.00;;;;;;5018510;28;20538;-84
2023/08/22 08:47:59;;;;;;;7.60;3.10;;;23.80;1.00;;;;;;5019246;28;20552;-84
2023/08/22 08:50:27;;;;;;;5.00;2.63;;;23.80;1.00;;;;;;5018008;28;20950;-83
2023/08/22 08:52:54;;;;;;;9.90;3.40;;;23.90;1.00;;;;;;5020398;28;20827;-82
2023/08/22 08:55:20;;;;;;;4.80;3.50;;;24.00;1.00;;;;;;5021780;28;20466;-84
2023/08/22 08:57:47;;;;;;;7.80;3.43;;;24.10;81.70;;;;;;5022793;28;20592;-84
2023/08/22 09:00:16;;;;;;;5.73;2.80;;;24.10;99.90;;;;;;5019777;28;21194;-84
2023/08/22 09:02:45;;;;;;;6.80;3.23;;;24.20;1.00;;;;;;5017878;28;20457;-84
2023/08/22 09:05:13;;;;;;;7.23;4.00;;;24.30;1.00;;;;;;5012426;28;20454;-83
2023/08/22 09:07:40;;;;;;;9.43;3.73;;;24.30;99.90;;;;;;5020034;28;20517;-85
2023/08/22 09:10:07;;;;;;;6.10;3.23;;;24.40;99.90;;;;;;5016707;28;20469;-83
2023/08/22 09:12:35;;;;;;;3.83;3.03;;;24.50;99.90;;;;;;5020987;28;20442;-82
2023/08/22 09:15:03;;;;;;;6.07;3.00;;;24.60;1.00;;;;;;5025553;28;20780;-82
2023/08/22 09:17:31;;;;;;;5.67;3.10;;;24.60;99.90;;;;;;5007234;28;20465;-82
2023/08/22 09:19:59;;;;;;;7.47;4.33;;;24.60;1.00;;;;;;5017405;28;20461;-80
2023/08/22 09:22:31;;;;;;;6.53;4.03;;;24.60;1.00;;;;;;5015071;28;20498;-84
2023/08/22 09:25:01;;;;;;;5.70;4.40;;;24.70;1.00;;;;;;5019414;28;20517;-83
2023/08/22 09:27:28;;;;;;;6.03;3.90;;;24.80;1.00;;;;;;5018663;28;20955;-83
2023/08/22 09:29:59;;;;;;;7.03;3.60;;;24.90;1.00;;;;;;5020019;28;20545;-85
2023/08/22 09:32:26;;;;;;;7.93;4.20;;;24.90;1.00;;;;;;5021813;28;20457;-86
2023/08/22 09:34:55;;;;;;;5.83;4.80;;;25.00;1.00;;;;;;5020737;28;20464;-82
2023/08/22 09:37:33;;;;;;;8.67;4.30;;;25.00;99.90;;;;;;5020228;28;20453;-86
2023/08/22 09:40:01;;;;;;;8.60;4.30;;;25.20;99.90;;;;;;5004271;28;20537;-84
2023/08/22 09:42:29;;;;;;;4.53;4.03;;;25.40;1.00;;;;;;5020833;28;20461;-85
2023/08/22 09:44:57;;;;;;;6.03;3.10;;;25.60;1.00;;;;;;5020868;28;20445;-84
2023/08/22 09:47:28;;;;;;;6.30;2.90;;;25.80;9.20;;;;;;5018780;28;20466;-85
2023/08/22 09:49:57;;;;;;;6.43;3.63;;;26.00;98.30;;;;;;5021092;28;20448;-85
2023/08/22 09:52:25;;;;;;;9.33;3.47;;;26.10;99.90;;;;;;5021667;28;20462;-85
2023/08/22 09:54:54;;;;;;;5.40;3.80;;;25.90;1.00;;;;;;5018648;28;20445;-83
2023/08/22 09:57:21;;;;;;;10.20;4.13;;;25.80;1.00;;;;;;5016151;28;20468;-84
2023/08/22 09:59:49;;;;;;;8.30;3.50;;;25.90;1.00;;;;;;5019048;28;20588;-83
2023/08/22 10:02:18;;;;;;;4.97;3.40;;;26.20;1.00;;;;;;5019621;28;20464;-85
2023/08/22 10:04:45;;;;;;;6.93;4.53;;;26.40;99.90;;;;;;5015955;28;21115;-84
2023/08/22 10:07:12;;;;;;;5.13;3.60;;;26.60;99.90;;;;;;5018513;28;20883;-84
2023/08/22 10:09:39;;;;;;;6.57;3.43;;;26.70;1.00;;;;;;5040097;23;21119;-80
2023/08/22 10:12:11;;;;;;;5.40;3.10;;;26.90;99.90;;;;;;5033914;28;20839;-81
2023/08/22 10:14:42;;;;;;;6.07;4.87;;;26.80;99.90;;;;;;5042080;28;20915;-84
2023/08/22 10:17:14;;;;;;;5.00;3.23;;;26.70;99.90;;;;;;5025497;28;20572;-83
2023/08/22 10:19:42;;;;;;;4.80;3.20;;;26.80;1.00;;;;;;5022469;28;20497;-80
2023/08/22 10:22:11;;;;;;;6.07;3.23;;;26.80;1.00;;;;;;5010586;28;20984;-81
2023/08/22 10:24:38;;;;;;;6.70;3.30;;;26.80;1.00;;;;;;5014834;28;20462;-81
2023/08/22 10:27:09;;;;;;;5.00;2.27;;;26.80;1.00;;;;;;5019100;28;20529;-81
2023/08/22 10:29:38;;;;;;;7.33;3.40;;;27.00;99.90;;;;;;5008080;28;20473;-83
2023/08/22 10:32:19;;;;;;;6.37;3.10;;;27.20;99.90;;;;;;5026737;28;21242;-81
2023/08/22 10:35:29;;;;;;;6.57;3.70;;;27.10;99.90;;;;;;5021527;28;20943;-81
2023/08/22 10:37:57;;;;;;;8.80;3.40;;;27.30;99.90;;;;;;5007667;28;20464;-81
2023/08/22 10:40:29;;;;;;;6.43;2.70;;;27.40;99.90;;;;;;5018633;28;20490;-82
2023/08/22 10:43:12;;;;;;;4.00;2.47;;;27.20;99.90;;;;;;5013145;28;20453;-82
2023/08/22 10:45:56;;;;;;;4.40;2.50;;;27.30;99.90;;;;;;5017008;28;20453;-82
2023/08/22 10:48:23;;;;;;;5.43;2.70;;;27.40;99.90;;;;;;5001358;28;20469;-81
2023/08/22 10:50:51;;;;;;;4.97;2.60;;;27.60;99.90;;;;;;5018556;28;20473;-81
2023/08/22 10:53:24;;;;;;;6.33;3.10;;;27.70;99.90;;;;;;5012126;28;20461;-81
2023/08/22 10:55:51;;;;;;;5.90;3.10;;;27.50;99.90;;;;;;5024502;28;20422;-82
2023/08/22 10:58:40;;;;;;;7.30;2.83;;;27.30;99.90;;;;;;5030048;28;20492;-82
2023/08/22 11:01:08;;;;;;;4.93;2.80;;;27.20;99.90;;;;;;5022357;28;20481;-82
2023/08/22 11:03:35;;;;;;;6.87;2.50;;;27.10;99.90;;;;;;5016900;28;20843;-82
2023/08/22 11:06:02;;;;;;;5.63;2.60;;;27.10;99.90;;;;;;5025817;28;20464;-82
2023/08/22 11:08:29;;;;;;;9.40;3.30;;;27.10;99.90;;;;;;5025924;28;20842;-83
2023/08/22 11:10:59;;;;;;;6.07;3.27;;;27.10;99.90;;;;;;5011650;28;20521;-81
2023/08/22 11:13:38;;;;;;;7.17;4.77;;;27.30;99.90;;;;;;5016193;28;20835;-81
2023/08/22 11:16:11;;;;;;;5.50;2.73;;;27.50;99.90;;;;;;5030674;28;20437;-82
2023/08/22 11:18:38;;;;;;;5.53;3.00;;;27.50;99.90;;;;;;5033553;28;20508;-81
2023/08/22 11:21:05;;;;;;;6.70;2.90;;;27.40;99.90;;;;;;5014854;28;20456;-80
2023/08/22 11:23:33;;;;;;;5.40;3.10;;;27.50;99.90;;;;;;5016264;28;20453;-81
2023/08/22 11:26:02;;;;;;;10.47;3.93;;;27.80;99.90;;;;;;5013862;28;20830;-82
2023/08/22 11:28:33;;;;;;;10.20;4.73;;;28.00;99.90;;;;;;5011672;28;20525;-81
2023/08/22 11:31:02;;;;;;;12.10;6.17;;;28.20;99.90;;;;;;5015597;28;20572;-82
2023/08/22 11:33:46;;;;;;;6.90;4.67;;;28.10;99.90;;;;;;5015850;28;20453;-80
2023/08/22 11:36:13;;;;;;;8.97;4.37;;;27.80;99.90;;;;;;5003239;28;20453;-81
2023/08/22 11:38:42;;;;;;;9.47;4.67;;;27.40;99.90;;;;;;5012518;28;20861;-83
2023/08/22 11:41:09;;;;;;;7.13;5.03;;;27.20;99.90;;;;;;4995118;28;20476;-82
2023/08/22 11:43:36;;;;;;;9.30;5.10;;;27.20;99.90;;;;;;5005175;28;20819;-82
2023/08/22 11:46:11;;;;;;;8.40;3.83;;;27.50;99.90;;;;;;5013568;28;20460;-82
2023/08/22 11:48:37;;;;;;;9.03;4.53;;;27.80;99.90;;;;;;5010263;28;20444;-82
2023/08/22 11:51:04;;;;;;;10.17;5.40;;;28.10;99.90;;;;;;5014497;28;20446;-82
2023/08/22 11:53:32;;;;;;;6.53;4.30;;;28.50;99.90;;;;;;5014294;28;20480;-82
2023/08/22 11:55:58;;;;;;;7.33;4.20;;;28.80;99.90;;;;;;5013805;28;20450;-83
2023/08/22 11:58:25;;;;;;;8.73;3.30;;;28.70;99.90;;;;;;5017705;28;20453;-82
2023/08/22 12:00:55;;;;;;;9.67;4.03;;;28.50;99.90;;;;;;5014464;28;20568;-82
2023/08/22 12:03:23;;;;;;;5.83;3.70;;;28.30;99.90;;;;;;5009739;28;20834;-82
2023/08/22 12:05:50;;;;;;;7.47;3.80;;;28.00;99.90;;;;;;5012860;28;20852;-82
2023/08/22 12:08:18;;;;;;;7.27;3.90;;;27.70;99.90;;;;;;5007679;28;20458;-83
2023/08/22 12:10:47;;;;;;;9.70;4.60;;;27.40;99.90;;;;;;5022765;28;20477;-83
2023/08/22 12:13:16;;;;;;;4.03;3.37;;;27.30;99.90;;;;;;5011693;28;20512;-83
2023/08/22 12:15:44;;;;;;;9.23;3.10;;;27.30;99.90;;;;;;5010620;28;20455;-84
2023/08/22 12:18:11;;;;;;;5.63;3.23;;;27.10;99.90;;;;;;5013666;28;20470;-82
2023/08/22 12:20:41;;;;;;;8.40;3.50;;;27.00;99.90;;;;;;5011731;28;20500;-83
2023/08/22 12:23:09;;;;;;;11.50;2.97;;;26.80;99.90;;;;;;5021811;28;20460;-83
2023/08/22 12:25:38;;;;;;;4.60;3.27;;;26.60;99.90;;;;;;5023207;28;20485;-84
2023/08/22 12:28:06;;;;;;;6.37;2.87;;;26.60;99.90;;;;;;5015891;28;20470;-81
2023/08/22 12:30:35;;;;;;;8.80;5.77;;;26.70;99.90;;;;;;5015933;28;20478;-83
2023/08/22 12:33:03;;;;;;;5.67;3.20;;;27.00;99.90;;;;;;5015050;28;20461;-81
2023/08/22 12:35:30;;;;;;;6.43;3.30;;;27.50;99.90;;;;;;5014389;28;20508;-80
2023/08/22 12:37:58;;;;;;;6.20;2.97;;;28.20;99.90;;;;;;5015659;28;20441;-82
2023/08/22 12:40:25;;;;;;;7.87;2.60;;;28.40;99.90;;;;;;5017832;28;20503;-81
2023/08/22 12:42:52;;;;;;;8.60;3.10;;;28.30;99.90;;;;;;5017725;28;21036;-81
2023/08/22 12:45:19;;;;;;;5.13;3.17;;;28.50;99.90;;;;;;5018931;28;20456;-82
2023/08/22 12:47:46;;;;;;;6.70;2.20;;;28.50;99.90;;;;;;5016235;28;20457;-83
2023/08/22 12:50:13;;;;;;;6.57;2.57;;;28.90;99.90;;;;;;5029912;28;20460;-82